Wetterstation Vordersexau
Wetterdaten: Woche 13.08.12 - 19.08.12 (KW33)
Datum Zeit Temp. A. Feuchte A. Luftdruck Regen Wind Richtung Taupunkt Windchill Windben
13.08.2012 00:00 17,4 C 80 % 1012,4 hPa 0,4 l/m 0,0 km/h O-NO 13,9 C 17,4 C 0,0 km/h
13.08.2012 01:00 16,4 C 81 % 1012,8 hPa 0,0 l/m 0,0 km/h SO 13,1 C 16,4 C 0,0 km/h
13.08.2012 02:00 15,8 C 82 % 1012,7 hPa 0,0 l/m 0,0 km/h SO 12,7 C 15,8 C 0,0 km/h
13.08.2012 03:00 14,9 C 83 % 1012,6 hPa 0,0 l/m 0,0 km/h SO 12,0 C 14,9 C 0,0 km/h
13.08.2012 04:00 14,9 C 82 % 1012,7 hPa 0,0 l/m 0,0 km/h SO 11,9 C 14,9 C 0,0 km/h
13.08.2012 05:00 14,3 C 82 % 1012,7 hPa 0,0 l/m 0,0 km/h SO 11,3 C 14,3 C 0,0 km/h
13.08.2012 06:00 14,8 C 80 % 1012,1 hPa 0,0 l/m 0,0 km/h SO 11,4 C 14,8 C 0,0 km/h
13.08.2012 07:00 14,9 C 80 % 1012,4 hPa 0,0 l/m 0,0 km/h O-SO 11,5 C 14,9 C 0,0 km/h
13.08.2012 08:00 17,3 C 83 % 1012,8 hPa 0,0 l/m 0,0 km/h W-NW 14,4 C 17,3 C 0,0 km/h
13.08.2012 09:00 24,8 C 69 % 1012,8 hPa 0,0 l/m 0,0 km/h W 18,7 C 24,8 C 0,0 km/h
13.08.2012 10:00 25,1 C 60 % 1012,8 hPa 0,0 l/m 4,5 km/h N-NO 16,8 C 25,1 C 2,5 km/h
13.08.2012 11:00 28,2 C 54 % 1012,3 hPa 0,0 l/m 11,0 km/h W-NW 18,0 C 27,6 C 6,1 km/h
13.08.2012 12:00 28,8 C 51 % 1012,0 hPa 0,0 l/m 1,3 km/h W 17,6 C 28,8 C 0,7 km/h
13.08.2012 13:00 30,0 C 49 % 1011,3 hPa 0,0 l/m 1,3 km/h N-NO 18,1 C 30,0 C 0,7 km/h
13.08.2012 14:00 31,5 C 41 % 1011,2 hPa 0,0 l/m 0,0 km/h NW 16,6 C 31,5 C 0,0 km/h
13.08.2012 15:00 33,4 C 39 % 1011,1 hPa 0,0 l/m 7,8 km/h N-NO 17,5 C 33,4 C 4,3 km/h
13.08.2012 16:00 30,8 C 44 % 1010,8 hPa 0,0 l/m 0,0 km/h N 17,1 C 30,8 C 0,0 km/h
13.08.2012 17:00 28,9 C 46 % 1010,8 hPa 0,0 l/m 1,3 km/h N-NO 16,1 C 28,9 C 0,7 km/h
13.08.2012 18:00 28,1 C 50 % 1010,9 hPa 0,0 l/m 0,0 km/h N-NO 16,7 C 28,1 C 0,0 km/h
13.08.2012 19:00 26,9 C 53 % 1010,9 hPa 0,0 l/m 0,0 km/h N-NO 16,5 C 26,9 C 0,0 km/h
13.08.2012 20:00 23,4 C 63 % 1010,9 hPa 0,0 l/m 0,0 km/h O-SO 15,9 C 23,4 C 0,0 km/h
13.08.2012 21:00 19,6 C 75 % 1011,2 hPa 0,0 l/m 0,0 km/h O-NO 15,0 C 19,6 C 0,0 km/h
13.08.2012 22:00 18,8 C 80 % 1011,5 hPa 0,0 l/m 0,0 km/h NO 15,3 C 18,8 C 0,0 km/h
13.08.2012 23:00 18,5 C 81 % 1011,7 hPa 0,0 l/m 0,0 km/h NO 15,2 C 18,5 C 0,0 km/h
14.08.2012 00:00 17,5 C 82 % 1012,0 hPa 0,0 l/m 0,0 km/h NO 14,4 C 17,5 C 0,0 km/h
14.08.2012 01:00 17,4 C 82 % 1011,5 hPa 0,0 l/m 0,0 km/h O 14,3 C 17,4 C 0,0 km/h
14.08.2012 02:00 16,6 C 82 % 1011,5 hPa 0,0 l/m 0,0 km/h SO 13,5 C 16,6 C 0,0 km/h
14.08.2012 03:00 15,3 C 82 % 1011,9 hPa 0,0 l/m 0,0 km/h O-NO 12,2 C 15,3 C 0,0 km/h
14.08.2012 04:00 15,3 C 82 % 1011,8 hPa 0,0 l/m 0,0 km/h SO 12,2 C 15,3 C 0,0 km/h
14.08.2012 05:00 14,6 C 81 % 1011,4 hPa 0,0 l/m 0,0 km/h O-SO 11,4 C 14,6 C 0,0 km/h
14.08.2012 06:00 14,4 C 80 % 1011,6 hPa 0,0 l/m 0,0 km/h O-NO 11,0 C 14,4 C 0,0 km/h
14.08.2012 07:00 14,5 C 78 % 1012,1 hPa 0,0 l/m 0,0 km/h O-NO 10,7 C 14,5 C 0,0 km/h
14.08.2012 08:00 19,4 C 79 % 1012,1 hPa 0,0 l/m 0,0 km/h SO 15,7 C 19,4 C 0,0 km/h
14.08.2012 09:00 25,8 C 63 % 1012,0 hPa 0,0 l/m 0,0 km/h N-NO 18,2 C 25,8 C 0,0 km/h
14.08.2012 10:00 29,9 C 49 % 1011,9 hPa 0,0 l/m 0,0 km/h W 18,0 C 29,9 C 0,0 km/h
14.08.2012 11:00 30,6 C 47 % 1012,2 hPa 0,0 l/m 2,6 km/h W-NW 18,0 C 30,6 C 1,4 km/h
14.08.2012 12:00 30,7 C 48 % 1011,7 hPa 0,0 l/m 3,2 km/h W 18,4 C 30,7 C 1,8 km/h
14.08.2012 13:00 31,4 C 44 % 1011,7 hPa 0,0 l/m 12,3 km/h S-SW 17,6 C 31,1 C 6,8 km/h
14.08.2012 14:00 32,6 C 40 % 1011,3 hPa 0,0 l/m 5,2 km/h O-SO 17,2 C 32,6 C 2,9 km/h
14.08.2012 15:00 34,9 C 36 % 1011,1 hPa 0,0 l/m 0,0 km/h W 17,6 C 34,9 C 0,0 km/h
14.08.2012 16:00 30,4 C 42 % 1011,3 hPa 0,0 l/m 3,9 km/h W 16,0 C 30,4 C 2,2 km/h
14.08.2012 17:00 30,6 C 42 % 1010,9 hPa 0,0 l/m 0,0 km/h N-NO 16,2 C 30,6 C 0,0 km/h
14.08.2012 18:00 29,1 C 47 % 1011,2 hPa 0,0 l/m 11,0 km/h NO 16,6 C 28,6 C 6,1 km/h
14.08.2012 19:00 26,4 C 56 % 1010,9 hPa 0,0 l/m 0,0 km/h O-NO 16,9 C 26,4 C 0,0 km/h
14.08.2012 20:00 23,9 C 66 % 1010,9 hPa 0,0 l/m 0,0 km/h O-NO 17,1 C 23,9 C 0,0 km/h
14.08.2012 21:00 22,3 C 73 % 1011,3 hPa 0,0 l/m 0,0 km/h NO 17,2 C 22,3 C 0,0 km/h
14.08.2012 22:00 21,2 C 75 % 1011,9 hPa 0,0 l/m 0,0 km/h SO 16,6 C 21,2 C 0,0 km/h
14.08.2012 23:00 19,6 C 78 % 1011,2 hPa 0,0 l/m 0,0 km/h SO 15,7 C 19,6 C 0,0 km/h
15.08.2012 00:00 19,0 C 79 % 1011,2 hPa 0,0 l/m 0,0 km/h NO 15,3 C 19,0 C 0,0 km/h
15.08.2012 01:00 18,0 C 81 % 1011,2 hPa 0,0 l/m 0,0 km/h O-NO 14,7 C 18,0 C 0,0 km/h
15.08.2012 02:00 17,4 C 82 % 1010,9 hPa 0,0 l/m 0,0 km/h NO 14,3 C 17,4 C 0,0 km/h
15.08.2012 03:00 17,1 C 82 % 1010,6 hPa 0,0 l/m 0,0 km/h O-NO 14,0 C 17,1 C 0,0 km/h
15.08.2012 04:00 16,6 C 82 % 1010,3 hPa 0,0 l/m 0,0 km/h O-NO 13,5 C 16,6 C 0,0 km/h
15.08.2012 05:00 16,5 C 82 % 1010,0 hPa 0,0 l/m 0,0 km/h SO 13,4 C 16,5 C 0,0 km/h
15.08.2012 06:00 17,4 C 82 % 1010,1 hPa 0,0 l/m 0,0 km/h O-SO 14,3 C 17,4 C 0,0 km/h
15.08.2012 07:00 18,1 C 82 % 1010,0 hPa 0,0 l/m 0,0 km/h N-NW 15,0 C 18,1 C 0,0 km/h
15.08.2012 08:00 23,8 C 73 % 1010,4 hPa 0,0 l/m 0,0 km/h W 18,7 C 23,8 C 0,0 km/h
15.08.2012 09:00 28,5 C 57 % 1010,3 hPa 0,0 l/m 0,0 km/h S-SW 19,1 C 28,5 C 0,0 km/h
15.08.2012 10:00 31,6 C 46 % 1010,0 hPa 0,0 l/m 0,0 km/h W 18,5 C 31,6 C 0,0 km/h
15.08.2012 11:00 33,1 C 43 % 1009,5 hPa 0,0 l/m 6,5 km/h S 18,8 C 33,1 C 3,6 km/h
15.08.2012 12:00 33,8 C 43 % 1009,2 hPa 0,0 l/m 7,8 km/h W-SW 19,4 C 33,8 C 4,3 km/h
15.08.2012 13:00 34,9 C 39 % 1008,5 hPa 0,0 l/m 3,9 km/h S-SW 18,8 C 34,9 C 2,2 km/h
15.08.2012 14:00 36,5 C 34 % 1008,3 hPa 0,0 l/m 0,0 km/h W-NW 18,1 C 36,5 C 0,0 km/h
15.08.2012 15:00 34,1 C 34 % 1007,9 hPa 0,0 l/m 0,0 km/h W-NW 16,0 C 34,1 C 0,0 km/h
15.08.2012 16:00 39,8 C 25 % 1007,7 hPa 0,0 l/m 3,2 km/h N-NO 16,0 C 39,8 C 1,8 km/h
15.08.2012 17:00 42,2 C 24 % 1007,3 hPa 0,0 l/m 0,0 km/h N-NO 17,4 C 42,2 C 0,0 km/h
15.08.2012 18:00 34,5 C 33 % 1007,5 hPa 0,0 l/m 0,0 km/h NO 15,8 C 34,5 C 0,0 km/h
15.08.2012 19:00 30,7 C 48 % 1007,7 hPa 0,0 l/m 0,0 km/h N-NW 18,4 C 30,7 C 0,0 km/h
15.08.2012 20:00 26,4 C 60 % 1008,2 hPa 0,0 l/m 0,0 km/h O 18,0 C 26,4 C 0,0 km/h
15.08.2012 21:00 23,1 C 72 % 1009,5 hPa 0,0 l/m 0,0 km/h O-SO 17,8 C 23,1 C 0,0 km/h
15.08.2012 22:00 23,2 C 71 % 1010,2 hPa 0,0 l/m 0,0 km/h NW 17,6 C 23,2 C 0,0 km/h
15.08.2012 23:00 19,1 C 81 % 1013,7 hPa 15,7 l/m 0,0 km/h S-SW 15,8 C 19,1 C 0,0 km/h
16.08.2012 00:00 17,8 C 81 % 1012,0 hPa 1,8 l/m 0,0 km/h NO 14,5 C 17,8 C 0,0 km/h
16.08.2012 01:00 18,1 C 79 % 1013,6 hPa 0,0 l/m 0,0 km/h S-SO 14,4 C 18,1 C 0,0 km/h
16.08.2012 02:00 18,3 C 79 % 1014,1 hPa 0,0 l/m 0,0 km/h S-SW 14,6 C 18,3 C 0,0 km/h
16.08.2012 03:00 18,4 C 78 % 1015,1 hPa 0,0 l/m 1,9 km/h S-SW 14,5 C 18,4 C 1,1 km/h
16.08.2012 04:00 16,8 C 78 % 1016,0 hPa 1,4 l/m 0,0 km/h SO 12,9 C 16,8 C 0,0 km/h
16.08.2012 05:00 16,2 C 77 % 1016,8 hPa 0,0 l/m 0,0 km/h SW 12,2 C 16,2 C 0,0 km/h
16.08.2012 06:00 16,3 C 76 % 1016,7 hPa 0,4 l/m 0,0 km/h W-SW 12,1 C 16,3 C 0,0 km/h
16.08.2012 07:00 16,4 C 73 % 1017,1 hPa 1,8 l/m 0,0 km/h W-SW 11,5 C 16,4 C 0,0 km/h
16.08.2012 08:00 16,8 C 72 % 1018,0 hPa 0,0 l/m 0,0 km/h S 11,7 C 16,8 C 0,0 km/h
16.08.2012 09:00 16,3 C 74 % 1018,3 hPa 1,1 l/m 0,0 km/h SO 11,7 C 16,3 C 0,0 km/h
16.08.2012 10:00 19,2 C 83 % 1019,0 hPa 0,0 l/m 0,0 km/h SO 16,2 C 19,2 C 0,0 km/h
16.08.2012 11:00 23,2 C 70 % 1019,1 hPa 0,0 l/m 0,0 km/h O-SO 17,4 C 23,2 C 0,0 km/h
16.08.2012 12:00 26,9 C 55 % 1019,0 hPa 0,0 l/m 0,0 km/h W-NW 17,1 C 26,9 C 0,0 km/h
16.08.2012 13:00 27,9 C 49 % 1018,8 hPa 0,0 l/m 1,9 km/h N-NO 16,2 C 27,9 C 1,1 km/h
16.08.2012 14:00 27,4 C 48 % 1018,8 hPa 0,0 l/m 0,0 km/h N-NO 15,4 C 27,4 C 0,0 km/h
16.08.2012 15:00 30,6 C 40 % 1018,4 hPa 0,0 l/m 0,0 km/h NO 15,4 C 30,6 C 0,0 km/h
16.08.2012 16:00 33,6 C 33 % 1018,1 hPa 0,0 l/m 0,0 km/h W-NW 15,1 C 33,6 C 0,0 km/h
16.08.2012 17:00 33,3 C 34 % 1017,7 hPa 0,0 l/m 0,0 km/h N-NO 15,3 C 33,3 C 0,0 km/h
16.08.2012 18:00 31,6 C 34 % 1017,5 hPa 0,0 l/m 0,0 km/h N-NO 13,8 C 31,6 C 0,0 km/h
16.08.2012 19:00 26,4 C 44 % 1017,3 hPa 0,0 l/m 0,0 km/h O 13,1 C 26,4 C 0,0 km/h
16.08.2012 20:00 20,4 C 69 % 1017,2 hPa 0,0 l/m 0,0 km/h O-SO 14,5 C 20,4 C 0,0 km/h
16.08.2012 21:00 17,9 C 77 % 1017,9 hPa 0,0 l/m 0,0 km/h SO 13,8 C 17,9 C 0,0 km/h
16.08.2012 22:00 17,6 C 80 % 1018,3 hPa 0,0 l/m 0,0 km/h O-NO 14,1 C 17,6 C 0,0 km/h
16.08.2012 23:00 16,9 C 81 % 1018,2 hPa 0,0 l/m 0,0 km/h SO 13,6 C 16,9 C 0,0 km/h
17.08.2012 00:00 16,3 C 81 % 1018,0 hPa 0,0 l/m 0,0 km/h SO 13,0 C 16,3 C 0,0 km/h
17.08.2012 01:00 15,2 C 82 % 1018,0 hPa 0,0 l/m 0,0 km/h N-NO 12,1 C 15,2 C 0,0 km/h
17.08.2012 02:00 14,4 C 83 % 1017,9 hPa 0,0 l/m 0,0 km/h NO 11,5 C 14,4 C 0,0 km/h
17.08.2012 03:00 13,8 C 82 % 1017,9 hPa 0,0 l/m 0,0 km/h NO 10,8 C 13,8 C 0,0 km/h
17.08.2012 04:00 13,1 C 81 % 1017,9 hPa 0,0 l/m 0,0 km/h O-SO 9,9 C 13,1 C 0,0 km/h
17.08.2012 05:00 12,6 C 81 % 1017,9 hPa 0,0 l/m 0,0 km/h NO 9,4 C 12,6 C 0,0 km/h
17.08.2012 06:00 12,5 C 79 % 1018,3 hPa 0,0 l/m 0,0 km/h NO 9,0 C 12,5 C 0,0 km/h
17.08.2012 07:00 12,8 C 78 % 1018,7 hPa 0,0 l/m 0,0 km/h O-NO 9,1 C 12,8 C 0,0 km/h
17.08.2012 08:00 15,9 C 63 % 1018,6 hPa 0,0 l/m 0,0 km/h S-SO 8,9 C 15,9 C 0,0 km/h
17.08.2012 09:00 25,9 C 61 % 1018,5 hPa 0,0 l/m 0,0 km/h NW 17,8 C 25,9 C 0,0 km/h
17.08.2012 10:00 27,3 C 52 % 1018,6 hPa 0,0 l/m 4,5 km/h W 16,6 C 27,3 C 2,5 km/h
17.08.2012 11:00 28,2 C 52 % 1018,7 hPa 0,0 l/m 0,0 km/h W-NW 17,4 C 28,2 C 0,0 km/h
17.08.2012 12:00 29,5 C 51 % 1018,3 hPa 0,0 l/m 0,0 km/h W 18,3 C 29,5 C 0,0 km/h
17.08.2012 13:00 29,9 C 47 % 1018,0 hPa 0,0 l/m 0,0 km/h N 17,3 C 29,9 C 0,0 km/h
17.08.2012 14:00 29,9 C 46 % 1018,1 hPa 0,0 l/m 0,0 km/h NW 17,0 C 29,9 C 0,0 km/h
17.08.2012 15:00 32,2 C 43 % 1017,4 hPa 0,0 l/m 0,0 km/h W-NW 18,0 C 32,2 C 0,0 km/h
17.08.2012 16:00 35,3 C 39 % 1017,2 hPa 0,0 l/m 3,9 km/h NW 19,2 C 35,3 C 2,2 km/h
17.08.2012 17:00 35,3 C 38 % 1017,3 hPa 0,0 l/m 0,0 km/h NW 18,8 C 35,3 C 0,0 km/h
17.08.2012 18:00 36,1 C 34 % 1017,1 hPa 0,0 l/m 0,0 km/h N-NO 17,7 C 36,1 C 0,0 km/h
17.08.2012 19:00 33,6 C 37 % 1017,0 hPa 0,0 l/m 0,0 km/h N-NO 16,9 C 33,6 C 0,0 km/h
17.08.2012 20:00 24,8 C 59 % 1017,1 hPa 0,0 l/m 0,0 km/h O-NO 16,2 C 24,8 C 0,0 km/h
17.08.2012 21:00 20,9 C 73 % 1017,4 hPa 0,0 l/m 0,0 km/h SO 15,9 C 20,9 C 0,0 km/h
17.08.2012 22:00 19,3 C 79 % 1018,0 hPa 0,0 l/m 0,0 km/h O-NO 15,6 C 19,3 C 0,0 km/h
17.08.2012 23:00 18,2 C 81 % 1018,2 hPa 0,0 l/m 0,0 km/h O-NO 14,9 C 18,2 C 0,0 km/h
18.08.2012 00:00 17,4 C 82 % 1017,8 hPa 0,0 l/m 0,0 km/h NO 14,3 C 17,4 C 0,0 km/h
18.08.2012 01:00 16,9 C 81 % 1017,8 hPa 0,0 l/m 0,0 km/h O 13,6 C 16,9 C 0,0 km/h
18.08.2012 02:00 15,9 C 81 % 1017,6 hPa 0,0 l/m 0,0 km/h O-NO 12,6 C 15,9 C 0,0 km/h
18.08.2012 03:00 15,6 C 80 % 1017,3 hPa 0,0 l/m 0,0 km/h O 12,2 C 15,6 C 0,0 km/h
18.08.2012 04:00 14,9 C 80 % 1017,6 hPa 0,0 l/m 0,0 km/h NO 11,5 C 14,9 C 0,0 km/h
18.08.2012 05:00 14,6 C 79 % 1017,4 hPa 0,0 l/m 0,0 km/h NO 11,0 C 14,6 C 0,0 km/h
18.08.2012 06:00 14,3 C 78 % 1017,4 hPa 0,0 l/m 0,0 km/h O-NO 10,5 C 14,3 C 0,0 km/h
18.08.2012 07:00 14,4 C 76 % 1017,7 hPa 0,0 l/m 0,0 km/h O-NO 10,2 C 14,4 C 0,0 km/h
18.08.2012 08:00 18,1 C 65 % 1018,1 hPa 0,0 l/m 0,0 km/h SW 11,4 C 18,1 C 0,0 km/h
18.08.2012 09:00 28,9 C 56 % 1018,3 hPa 0,0 l/m 0,0 km/h SW 19,2 C 28,9 C 0,0 km/h
18.08.2012 10:00 29,6 C 51 % 1018,5 hPa 0,0 l/m 0,0 km/h S 18,4 C 29,6 C 0,0 km/h
18.08.2012 11:00 31,6 C 46 % 1018,2 hPa 0,0 l/m 0,0 km/h W 18,5 C 31,6 C 0,0 km/h
18.08.2012 12:00 32,4 C 45 % 1017,9 hPa 0,0 l/m 0,0 km/h SW 18,9 C 32,4 C 0,0 km/h
18.08.2012 13:00 32,3 C 45 % 1017,8 hPa 0,0 l/m 0,0 km/h W 18,8 C 32,3 C 0,0 km/h
18.08.2012 14:00 33,1 C 44 % 1017,4 hPa 0,0 l/m 0,0 km/h NW 19,2 C 33,1 C 0,0 km/h
18.08.2012 15:00 36,5 C 38 % 1017,0 hPa 0,0 l/m 0,0 km/h N 19,8 C 36,5 C 0,0 km/h
18.08.2012 16:00 39,2 C 35 % 1016,8 hPa 0,0 l/m 0,0 km/h W 20,9 C 39,2 C 0,0 km/h
18.08.2012 17:00 39,5 C 34 % 1016,8 hPa 0,0 l/m 0,0 km/h W 20,7 C 39,5 C 0,0 km/h
18.08.2012 18:00 39,4 C 34 % 1016,6 hPa 0,0 l/m 0,0 km/h W 20,6 C 39,4 C 0,0 km/h
18.08.2012 19:00 36,5 C 41 % 1016,5 hPa 0,0 l/m 0,0 km/h N-NO 21,1 C 36,5 C 0,0 km/h
18.08.2012 20:00 27,9 C 64 % 1016,7 hPa 0,0 l/m 0,0 km/h O-NO 20,4 C 27,9 C 0,0 km/h
18.08.2012 21:00 23,8 C 77 % 1017,1 hPa 0,0 l/m 0,0 km/h O 19,5 C 23,8 C 0,0 km/h
18.08.2012 22:00 22,3 C 80 % 1017,5 hPa 0,0 l/m 0,0 km/h N 18,7 C 22,3 C 0,0 km/h
18.08.2012 23:00 20,9 C 81 % 1017,7 hPa 0,0 l/m 0,0 km/h O-SO 17,5 C 20,9 C 0,0 km/h
19.08.2012 00:00 19,3 C 81 % 1017,5 hPa 0,0 l/m 0,0 km/h O-NO 16,0 C 19,3 C 0,0 km/h
19.08.2012 01:00 17,9 C 82 % 1017,8 hPa 0,0 l/m 0,0 km/h O-NO 14,8 C 17,9 C 0,0 km/h
19.08.2012 02:00 17,4 C 82 % 1017,6 hPa 0,0 l/m 0,0 km/h SO 14,3 C 17,4 C 0,0 km/h
19.08.2012 03:00 16,8 C 81 % 1017,5 hPa 0,0 l/m 0,0 km/h NO 13,5 C 16,8 C 0,0 km/h
19.08.2012 04:00 16,6 C 80 % 1017,7 hPa 0,0 l/m 0,0 km/h SO 13,1 C 16,6 C 0,0 km/h
19.08.2012 05:00 16,6 C 80 % 1017,6 hPa 0,0 l/m 9,7 km/h SO 13,1 C 15,0 C 5,4 km/h
19.08.2012 06:00 15,9 C 81 % 1017,8 hPa 0,0 l/m 0,0 km/h NO 12,6 C 15,9 C 0,0 km/h
19.08.2012 07:00 16,6 C 80 % 1018,3 hPa 0,0 l/m 0,0 km/h SO 13,1 C 16,6 C 0,0 km/h
19.08.2012 08:00 19,5 C 82 % 1018,4 hPa 0,0 l/m 0,0 km/h S-SO 16,3 C 19,5 C 0,0 km/h
19.08.2012 09:00 28,5 C 59 % 1018,5 hPa 0,0 l/m 0,0 km/h W 19,7 C 28,5 C 0,0 km/h
19.08.2012 10:00 31,8 C 49 % 1018,5 hPa 0,0 l/m 0,0 km/h N-NO 19,7 C 31,8 C 0,0 km/h
19.08.2012 11:00 34,7 C 42 % 1018,1 hPa 0,0 l/m 0,0 km/h W 19,9 C 34,7 C 0,0 km/h
19.08.2012 12:00 35,6 C 43 % 1017,9 hPa 0,0 l/m 0,0 km/h W 21,0 C 35,6 C 0,0 km/h
19.08.2012 13:00 34,6 C 45 % 1017,8 hPa 0,0 l/m 0,0 km/h W 20,9 C 34,6 C 0,0 km/h
19.08.2012 14:00 36,2 C 38 % 1017,2 hPa 0,0 l/m 0,0 km/h W-SW 19,6 C 36,2 C 0,0 km/h
19.08.2012 15:00 39,2 C 35 % 1017,1 hPa 0,0 l/m 0,0 km/h S-SO 20,9 C 39,2 C 0,0 km/h
19.08.2012 16:00 43,4 C 28 % 1016,5 hPa 0,0 l/m 0,0 km/h N 20,8 C 43,4 C 0,0 km/h
19.08.2012 17:00 45,2 C 27 % 1016,0 hPa 0,0 l/m 0,0 km/h O 21,8 C 45,2 C 0,0 km/h
19.08.2012 18:00 43,3 C 32 % 1015,6 hPa 0,0 l/m 0,0 km/h O-NO 22,9 C 43,3 C 0,0 km/h
19.08.2012 19:00 36,9 C 45 % 1015,5 hPa 0,0 l/m 0,0 km/h NO 23,0 C 36,9 C 0,0 km/h
19.08.2012 20:00 27,8 C 63 % 1015,5 hPa 0,0 l/m 0,0 km/h SO 20,1 C 27,8 C 0,0 km/h
19.08.2012 21:00 24,1 C 74 % 1016,1 hPa 0,0 l/m 0,0 km/h NO 19,2 C 24,1 C 0,0 km/h
19.08.2012 22:00 23,1 C 75 % 1016,2 hPa 0,0 l/m 0,0 km/h SO 18,4 C 23,1 C 0,0 km/h
19.08.2012 23:00 21,9 C 76 % 1016,3 hPa 0,0 l/m 0,0 km/h SO 17,5 C 21,9 C 0,0 km/h
Min-Datum _ 17.08.12 15.08.12 15.08.12 - 13.08.12 - 17.08.12 17.08.12 13.08.12
_ Min-Zeit 06:19 17:19 17:19 - 00:19 - 08:19 06:19 00:19
Minimum _ 12,5 C 24 % 1007,3 hPa - 0,0 km/h - 8,9 C 12,5 C 0,0 km/h
Max-Datum _ 19.08.12 13.08.12 16.08.12 15.08.12 14.08.12 - 19.08.12 19.08.12 14.08.12
_ Max-Zeit 17:19 03:19 11:19 23:19 13:19 - 19:19 17:19 13:19
Maximum _ 45,2 C 83 % 1019,1 hPa 15,7 l/m 12,3 km/h
S-SW
- 23,0 C 45,2 C 6,8 km/h
S-SW
Durchschnitt _ 24,4 C 63 % 1014,7 hPa #22,4 l/m 0,6 km/h SO 15,8 C 24,3 C 0,4 km/h
www.sexauwetter.de